• Join FlightAware (Why Join?)
  • Login
  • US Flag GB Flag 
18:07 EDT


 

Airport Tracker/Info


-or-


 

Live Flight TrackerFlight Track Log ✈ ASQ4905 ✈ 17-Aug-2014 ✈ KDTW - KOKC

Flight Track Log - Related Links

Times and Time Zones

All times are in EDT time to prevent confusion due to time zone crossing. See the ASQ4905 flight status page for this flight to view local times or setup timezone preferences in your user account.

Time Position Orientation Groundspeed Altitude Reporting Facility
EDT Latitude Longitude Course Direction KTS MPH feet Rate Location/Type
20:08 42.2014 -83.3722 217° Southwest 157 181 1,300  Level Cleveland Center
20:09 42.1606 -83.4142 217° Southwest 241 277 2,100 1,500 Climbing Cleveland Center
20:10 42.1033 -83.4692 215° Southwest 254 292 4,400 2,220 Climbing Cleveland Center
20:11 42.0389 -83.5233 212° Southwest 266 306 7,000 2,400 Climbing Cleveland Center
20:12 41.9725 -83.5778 211° Southwest 274 315 9,400 1,980 Climbing Cleveland Center
20:13 41.8856 -83.6494 212° Southwest 303 349 11,200 1,500 Climbing Cleveland Center
20:14 41.8047 -83.7169 212° Southwest 336 387 12,600 1,200 Climbing Cleveland Center
20:15 41.7175 -83.7900 212° Southwest 364 419 13,800 1,200 Climbing Cleveland Center
20:16 41.6264 -83.8650 212° Southwest 378 435 15,100 1,200 Climbing Cleveland Center
20:17 41.5336 -83.9428 212° Southwest 390 449 16,300 1,200 Climbing Cleveland Center
20:18 41.4206 -84.0417 213° Southwest 403 464 17,600 1,320 Climbing Cleveland Center
20:19 41.3364 -84.1167 214° Southwest 407 468 19,100 1,440 Climbing Cleveland Center
20:20 41.2458 -84.1997 215° Southwest 397 457 20,600 1,200 Climbing Cleveland Center
20:21 41.1936 -84.3617 247° West 403 464 21,600 900 Climbing Cleveland Center
20:22 41.1569 -84.5050 251° West 406 467 22,500 840 Climbing Cleveland Center
20:23 41.1186 -84.6522 251° West 417 480 23,400 840 Climbing Cleveland Center
20:24 41.0806 -84.7989 251° West 422 486 24,300 780 Climbing Chicago Center
20:25 41.0419 -84.9469 251° West 423 487 25,100 720 Climbing Chicago Center
20:26 41.0014 -85.0992 251° West 431 496 25,800 660 Climbing Chicago Center
20:28 40.9553 -85.2492 248° West 436 502 26,500 720 Climbing Chicago Center
20:29 40.8894 -85.4272 244° Southwest 445 512 27,300 720 Climbing Chicago Center
20:30 40.8356 -85.5753 244° Southwest 445 512 28,100 720 Climbing Chicago Center
20:31 40.7808 -85.7236 244° Southwest 447 514 28,800 660 Climbing Chicago Center
20:32 40.7253 -85.8714 244° Southwest 447 514 29,500 540 Climbing Chicago Center
20:33 40.6658 -86.0339 244° Southwest 448 516 30,000 240 Climbing Chicago Center
20:34 40.6089 -86.1833 243° Southwest 456 525 30,000  Level Chicago Center
20:35 40.5525 -86.3347 244° Southwest 461 531 30,000  Level Chicago Center
20:36 40.4958 -86.4839 243° Southwest 461 531 30,000  Level Chicago Center
20:37 40.4278 -86.6619 243° Southwest 460 529 30,000  Level Chicago Center
20:38 40.3692 -86.8108 243° Southwest 461 531 30,000  Level Chicago Center
20:39 40.3122 -86.9603 243° Southwest 461 531 30,000  Level Chicago Center
20:40 40.2536 -87.1089 243° Southwest 461 531 30,000  Level Chicago Center
20:41 40.1953 -87.2581 243° Southwest 462 532 30,000  Level Chicago Center
20:42 40.1261 -87.4367 243° Southwest 462 532 30,000  Level Chicago Center
20:43 40.0542 -87.6133 242° Southwest 462 532 30,000  Level Indianapolis Center
20:44 40.0089 -87.7331 244° Southwest 462 532 30,000  Level Chicago Center
20:45 39.9494 -87.8819 243° Southwest 462 532 30,000  Level Chicago Center
20:46 39.8900 -88.0314 243° Southwest 464 534 30,000  Level Chicago Center
20:47 39.8392 -88.1503 241° Southwest 463 533 30,000  Level Kansas City Center
20:48 39.7803 -88.2892 241° Southwest 463 533 30,000  Level Kansas City Center
20:49 39.7136 -88.4356 239° Southwest 466 536 30,000  Level Kansas City Center
20:50 39.6481 -88.5814 240° Southwest 466 536 30,000  Level Kansas City Center
20:51 39.5836 -88.7247 240° Southwest 465 535 30,000  Level Kansas City Center
20:52 39.5197 -88.8678 240° Southwest 461 531 30,000  Level Kansas City Center
20:53 39.4414 -89.0383 239° Southwest 460 529 30,000  Level Kansas City Center
20:54 39.3856 -89.1619 240° Southwest 459 528 30,000  Level Kansas City Center
20:55 39.3089 -89.3314 240° Southwest 459 528 30,000  Level Kansas City Center
20:56 39.2450 -89.4708 239° Southwest 458 527 30,000  Level Kansas City Center
20:57 39.1808 -89.6094 239° Southwest 457 526 30,000  Level Kansas City Center
20:58 39.1194 -89.7428 239° Southwest 447 514 30,000  Level Kansas City Center
20:59 39.0558 -89.8808 239° Southwest 447 514 30,000  Level Kansas City Center
21:00 38.9767 -90.0456 238° Southwest 458 527 30,000  Level Kansas City Center
21:01 38.9119 -90.1833 239° Southwest 456 525 30,000  Level Kansas City Center
21:02 38.8450 -90.3208 238° Southwest 452 520 30,000  Level Kansas City Center
21:03 38.7750 -90.4789 240° Southwest 461 531 30,000  Level Kansas City Center
21:04 38.7103 -90.6144 239° Southwest 460 529 30,000  Level Kansas City Center
21:05 38.6408 -90.7572 238° Southwest 453 521 30,000  Level Kansas City Center
21:06 38.5756 -90.8939 239° Southwest 454 522 30,000  Level Kansas City Center
21:08 38.5106 -91.0294 239° Southwest 452 520 30,000  Level Kansas City Center
21:09 38.4447 -91.1644 238° Southwest 448 516 30,000  Level Kansas City Center
21:10 38.3797 -91.2983 238° Southwest 449 517 30,000  Level Kansas City Center
21:11 38.3242 -91.4492 245° Southwest 447 514 30,000  Level Kansas City Center
21:12 38.2819 -91.5961 250° West 444 511 30,000  Level Kansas City Center
21:13 38.2297 -91.7717 249° West 443 510 30,000  Level Kansas City Center
21:14 38.1867 -91.9186 250° West 443 510 30,000  Level Kansas City Center
21:15 38.1417 -92.0647 249° West 445 512 30,000  Level Kansas City Center
21:16 38.0997 -92.2008 249° West 445 512 30,000  Level Kansas City Center
21:17 38.0550 -92.3453 249° West 438 504 30,000  Level Kansas City Center
21:18 38.0086 -92.5253 252° West 447 514 30,000  Level Kansas City Center
21:19 37.9567 -92.6675 245° Southwest 447 514 30,000  Level Kansas City Center
21:20 37.9128 -92.8111 249° West 443 510 30,000  Level Kansas City Center
21:21 37.8678 -92.9553 248° West 441 507 30,000  Level Kansas City Center
21:22 37.8222 -93.0997 248° West 441 507 30,000  Level Kansas City Center
21:23 37.7667 -93.2722 248° West 441 507 30,000  Level Kansas City Center
21:24 37.7219 -93.4169 249° West 441 507 30,000  Level Kansas City Center
21:25 37.6756 -93.5617 248° West 442 509 30,000  Level Kansas City Center
21:26 37.6303 -93.7069 249° West 443 510 30,000  Level Kansas City Center
21:27 37.5825 -93.8508 247° West 443 510 30,000  Level Kansas City Center
21:28 37.5369 -93.9947 248° West 443 510 30,000  Level Kansas City Center
21:29 37.4869 -94.1489 248° West 443 510 30,000  Level Kansas City Center
21:30 37.4392 -94.2933 247° West 444 511 30,000  Level Kansas City Center
21:31 37.3922 -94.4389 248° West 445 512 30,000  Level Kansas City Center
21:32 37.3358 -94.6100 248° West 445 512 30,000  Level Kansas City Center
21:33 37.2881 -94.7550 248° West 446 513 30,000  Level Kansas City Center
21:34 37.2383 -94.8964 246° West 446 513 30,000  Level Kansas City Center
21:35 37.1908 -95.0406 248° West 446 513 30,000  Level Kansas City Center
21:36 37.1228 -95.1708 237° Southwest 449 517 30,000  Level Kansas City Center
21:37 37.0403 -95.2892 229° Southwest 450 518 30,000  Level Kansas City Center
21:38 36.9414 -95.4303 229° Southwest 450 518 30,000  Level Kansas City Center
21:40 36.8594 -95.5481 229° Southwest 450 518 30,000  Level Kansas City Center
21:41 36.7772 -95.6650 229° Southwest 450 518 30,000  Level Kansas City Center
21:42 36.6950 -95.7822 229° Southwest 450 518 30,000  Level Kansas City Center
21:43 36.6111 -95.8986 228° Southwest 452 520 30,000  Level Kansas City Center
21:44 36.5108 -96.0394 228° Southwest 454 522 30,000  Level Kansas City Center
21:45 36.4261 -96.1561 228° Southwest 455 524 30,000 -780 Level Kansas City Center
21:46 36.3419 -96.2739 228° Southwest 455 524 28,400 -1,920 Descending Kansas City Center
21:47 36.2583 -96.3908 228° Southwest 456 525 26,100 -2,340 Descending Kansas City Center
21:48 36.1750 -96.5028 227° Southwest 450 518 23,700 -2,280 Descending Kansas City Center
21:49 36.0961 -96.6122 228° Southwest 433 498 21,400 -2,280 Descending Kansas City Center
21:50 36.0181 -96.7214 229° Southwest 420 483 19,000 -2,400 Descending Kansas City Center
21:51 35.9278 -96.8428 227° Southwest 404 465 16,500 -2,220 Descending Kansas City Center
21:52 35.8594 -96.9453 231° Southwest 395 455 14,400 -2,520 Descending Fort Worth Center
21:52 35.8242 -97.0011 232° Southwest 380 437 12,800 -2,640 Descending Fort Worth Center
21:53 35.7994 -97.0517 239° Southwest 383 441 11,700 -1,920 Descending Fort Worth Center
21:53 35.7669 -97.1044 233° Southwest 366 421 10,900 -1,320 Descending Fort Worth Center
21:54 35.7436 -97.1503 238° Southwest 361 415 10,400 -1,260 Descending Fort Worth Center
21:54 35.7114 -97.2047 234° Southwest 311 358 9,500 -1,800 Descending Fort Worth Center
21:55 35.6844 -97.2508 234° Southwest 318 366 8,600 -1,860 Descending Fort Worth Center
21:55 35.6656 -97.2828 234° Southwest 301 346 7,800 -2,100 Descending Fort Worth Center
21:56 35.6372 -97.3339 236° Southwest 302 348 6,500 -2,040 Descending Fort Worth Center
21:56 35.6206 -97.3656 237° Southwest 293 337 5,800 -1,860 Descending Fort Worth Center
21:57 35.5903 -97.4172 234° Southwest 278 320 4,600 -1,500 Descending Fort Worth Center
21:57 35.5767 -97.4403 234° Southwest 269 310 4,300 -600 Descending Fort Worth Center
21:58 35.5517 -97.4858 236° Southwest 238 274 4,000 -600 Descending Fort Worth Center
21:58 35.5400 -97.5061 235° Southwest 224 258 3,700 -1,020 Descending Fort Worth Center
21:59 35.5167 -97.5458 234° Southwest 218 251 3,000 -600 Descending Fort Worth Center
21:59 35.5047 -97.5661 234° Southwest 189 217 3,100 -240 Climbing Fort Worth Center
22:00 35.4817 -97.5908 221° Southwest 168 193 2,800 -600 Descending Fort Worth Center
22:00 35.4694 -97.5903 178° South 129 148 2,500 -720 Descending Fort Worth Center
22:01 35.4456 -97.5892 178° South 134 154 2,100 -600 Descending Fort Worth Center
22:01 35.4381 -97.5906 189° South 121 139 2,000 -600 Descending Fort Worth Center
22:02 35.4106 -97.5897 179° South 129 148 1,500 -660 Descending Fort Worth Center
22:04 35.3931 -97.6008 238° Southwest  Level Estimated